createdAt,value
2018-09-30T00:02:08.788Z,53.50
2018-09-30T00:04:41.176Z,52.90
2018-09-30T00:07:14.353Z,52.80
2018-09-30T00:09:47.479Z,52.00
2018-09-30T00:12:20.142Z,52.10
2018-09-30T00:14:52.493Z,52.30
2018-09-30T00:17:25.728Z,51.80
2018-09-30T00:19:58.258Z,51.80
2018-09-30T00:22:31.286Z,52.30
2018-09-30T00:25:08.305Z,53.10
2018-09-30T00:27:40.873Z,56.50
2018-09-30T00:30:13.681Z,58.50
2018-09-30T00:32:45.463Z,59.20
2018-09-30T00:35:18.244Z,58.80
2018-09-30T00:37:52.587Z,58.80
2018-09-30T00:40:26.617Z,59.60
2018-09-30T00:42:59.976Z,59.50
2018-09-30T00:45:32.865Z,60.10
2018-09-30T00:48:05.193Z,59.90
2018-09-30T00:50:39.486Z,61.50
2018-09-30T00:53:12.163Z,62.60
2018-09-30T00:55:44.899Z,62.50
2018-09-30T00:58:17.264Z,63.20
2018-09-30T01:00:50.273Z,63.60
2018-09-30T01:03:23.147Z,64.60
2018-09-30T01:05:56.014Z,65.00
2018-09-30T01:08:28.486Z,64.80
2018-09-30T01:11:01.770Z,67.00
2018-09-30T01:13:34.557Z,67.90
2018-09-30T01:16:07.948Z,68.70
2018-09-30T01:18:40.938Z,68.20
2018-09-30T01:21:13.057Z,66.30
2018-09-30T01:23:45.958Z,68.20
2018-09-30T01:26:19.038Z,66.20
2018-09-30T01:28:52.017Z,63.90
2018-09-30T01:31:24.418Z,65.90
2018-09-30T01:33:57.528Z,66.80
2018-09-30T01:36:29.665Z,67.20
2018-09-30T01:39:03.135Z,67.80
2018-09-30T01:41:36.767Z,68.20
2018-09-30T01:44:09.435Z,67.90
2018-09-30T01:46:42.085Z,67.30
2018-09-30T01:49:14.755Z,66.50
2018-09-30T01:52:00.111Z,66.70
2018-09-30T01:54:34.710Z,67.20
2018-09-30T01:57:08.038Z,67.10
2018-09-30T01:59:39.851Z,68.10
2018-09-30T02:02:15.295Z,68.50
2018-09-30T02:04:49.012Z,68.40
2018-09-30T02:07:22.316Z,70.90
2018-09-30T02:09:56.595Z,70.00
2018-09-30T02:12:30.013Z,69.70
2018-09-30T02:15:03.848Z,69.90
2018-09-30T02:17:43.722Z,70.70
2018-09-30T02:20:16.052Z,71.90
2018-09-30T02:22:48.173Z,71.80
2018-09-30T02:25:20.972Z,71.30
2018-09-30T02:27:54.109Z,71.30
2018-09-30T02:30:27.492Z,71.10
2018-09-30T02:33:00.262Z,70.50
2018-09-30T02:35:33.630Z,71.10
2018-09-30T02:38:07.544Z,71.40
2018-09-30T02:40:40.111Z,71.80
2018-09-30T02:43:12.637Z,71.80
2018-09-30T02:45:45.656Z,71.10
2018-09-30T02:48:17.982Z,71.20
2018-09-30T02:50:51.909Z,71.50
2018-09-30T02:53:24.848Z,71.10
2018-09-30T02:55:56.993Z,68.90
2018-09-30T02:58:29.361Z,68.50
2018-09-30T03:01:02.328Z,68.60
2018-09-30T03:03:35.143Z,69.10
2018-09-30T03:06:12.383Z,69.40
2018-09-30T03:08:49.778Z,70.30
2018-09-30T03:11:22.560Z,70.40
2018-09-30T03:13:54.887Z,70.50
2018-09-30T03:16:27.746Z,70.50
2018-09-30T03:19:00.003Z,70.20
2018-09-30T03:21:33.666Z,71.00
2018-09-30T03:24:06.862Z,71.70
2018-09-30T03:26:39.554Z,72.50
2018-09-30T03:29:13.065Z,72.70
2018-09-30T03:31:45.280Z,73.50
2018-09-30T03:34:18.138Z,73.50
2018-09-30T03:36:51.547Z,73.10
2018-09-30T03:39:24.544Z,73.30
2018-09-30T03:41:56.998Z,73.50
2018-09-30T03:44:29.544Z,73.40
2018-09-30T03:47:02.903Z,73.40
2018-09-30T03:49:35.258Z,73.10
2018-09-30T03:52:07.937Z,73.10
2018-09-30T03:54:39.680Z,72.80
2018-09-30T03:57:11.995Z,72.80
2018-09-30T03:59:45.366Z,72.50
2018-09-30T04:02:17.836Z,72.20
2018-09-30T04:04:50.845Z,72.20
2018-09-30T04:07:23.429Z,72.50
2018-09-30T04:09:56.614Z,73.70
2018-09-30T04:12:28.907Z,72.90
2018-09-30T04:15:02.418Z,71.90
2018-09-30T04:17:34.844Z,72.00
2018-09-30T04:20:08.526Z,72.40
2018-09-30T04:22:41.604Z,72.30
2018-09-30T04:25:13.260Z,72.10
2018-09-30T04:27:45.910Z,71.80
2018-09-30T04:30:18.514Z,72.80
2018-09-30T04:32:50.432Z,73.30
2018-09-30T04:35:22.720Z,72.70
2018-09-30T04:37:55.338Z,73.10
2018-09-30T04:40:27.921Z,72.80
2018-09-30T04:43:00.482Z,72.30
2018-09-30T04:45:33.473Z,73.20
2018-09-30T04:48:06.074Z,73.30
2018-09-30T04:50:38.755Z,73.30
2018-09-30T04:53:10.968Z,73.10
2018-09-30T04:55:44.001Z,73.20
2018-09-30T04:58:17.193Z,73.60
2018-09-30T05:00:49.933Z,73.90
2018-09-30T05:03:23.419Z,73.90
2018-09-30T05:05:56.062Z,73.60
2018-09-30T05:08:28.590Z,74.00
2018-09-30T05:11:00.909Z,74.20
2018-09-30T05:13:34.324Z,74.70
2018-09-30T05:16:08.780Z,74.70
2018-09-30T05:18:41.732Z,74.50
2018-09-30T05:21:14.575Z,74.40
2018-09-30T05:23:46.848Z,74.50
2018-09-30T05:26:19.859Z,74.30
2018-09-30T05:28:53.687Z,74.30
2018-09-30T05:31:26.195Z,74.50
2018-09-30T05:33:59.092Z,74.00
2018-09-30T05:36:31.871Z,74.20
2018-09-30T05:39:05.342Z,74.00
2018-09-30T05:41:38.498Z,74.20
2018-09-30T05:44:12.447Z,74.70
2018-09-30T05:46:45.101Z,75.00
2018-09-30T05:49:18.926Z,75.00
2018-09-30T05:51:51.524Z,75.30
2018-09-30T05:54:24.877Z,75.60
2018-09-30T05:56:58.902Z,76.40
2018-09-30T05:59:31.833Z,76.90
2018-09-30T06:02:04.923Z,76.70
2018-09-30T06:05:09.951Z,76.70
2018-09-30T06:07:43.190Z,76.40
2018-09-30T06:10:15.403Z,77.40
2018-09-30T06:12:48.175Z,77.80
2018-09-30T06:15:20.379Z,78.10
2018-09-30T06:17:54.782Z,78.30
2018-09-30T06:20:27.291Z,78.90
2018-09-30T06:22:59.628Z,79.10
2018-09-30T06:25:32.376Z,79.30
2018-09-30T06:28:05.086Z,79.30
2018-09-30T06:30:38.398Z,79.30
2018-09-30T06:33:10.384Z,78.70
2018-09-30T06:35:42.932Z,78.40
2018-09-30T06:38:15.735Z,77.60
2018-09-30T06:40:49.216Z,76.10
2018-09-30T06:43:21.908Z,74.80
2018-09-30T06:45:54.368Z,74.20
2018-09-30T06:48:28.794Z,73.80
2018-09-30T06:51:03.309Z,73.40
2018-09-30T06:53:36.064Z,72.50
2018-09-30T06:56:09.637Z,71.70
2018-09-30T06:58:42.756Z,70.60
2018-09-30T07:01:15.765Z,69.80
2018-09-30T07:03:48.905Z,70.10
2018-09-30T07:06:20.603Z,69.40
2018-09-30T07:08:53.676Z,67.30
2018-09-30T07:11:27.285Z,64.20
2018-09-30T07:14:01.744Z,62.00
2018-09-30T07:16:33.903Z,62.90
2018-09-30T07:19:07.536Z,64.30
2018-09-30T07:21:43.285Z,63.60
2018-09-30T07:24:16.370Z,63.90
2018-09-30T07:26:49.084Z,63.70
2018-09-30T07:29:21.977Z,63.50
2018-09-30T07:31:54.765Z,63.60
2018-09-30T07:34:27.582Z,63.00
2018-09-30T07:36:59.498Z,63.20
2018-09-30T07:39:34.980Z,63.90
2018-09-30T07:42:07.349Z,62.70
2018-09-30T07:44:40.470Z,61.90
2018-09-30T07:47:12.764Z,61.40
2018-09-30T07:49:45.460Z,61.80
2018-09-30T07:52:18.525Z,62.40
2018-09-30T07:54:51.018Z,61.90
2018-09-30T07:57:24.808Z,61.20
2018-09-30T07:59:58.124Z,60.70
2018-09-30T08:02:33.282Z,60.80
2018-09-30T08:05:06.266Z,60.40
2018-09-30T08:07:38.963Z,59.80
2018-09-30T08:10:11.058Z,60.10
2018-09-30T08:12:43.867Z,58.80
2018-09-30T08:15:16.792Z,58.90
2018-09-30T08:17:50.882Z,58.50
2018-09-30T08:20:23.583Z,58.20
2018-09-30T08:22:55.271Z,57.30
2018-09-30T08:25:28.041Z,56.70
2018-09-30T08:28:00.554Z,56.40
2018-09-30T08:30:34.594Z,56.90
2018-09-30T08:33:08.942Z,56.40
2018-09-30T08:35:42.321Z,56.40
2018-09-30T08:38:19.412Z,58.60
2018-09-30T08:40:57.405Z,58.70
2018-09-30T08:43:32.845Z,57.10
2018-09-30T08:46:08.504Z,54.90
2018-09-30T08:48:42.668Z,53.40
2018-09-30T08:51:16.664Z,53.20
2018-09-30T08:53:51.138Z,52.10
2018-09-30T08:56:24.241Z,52.60
2018-09-30T09:04:03.922Z,53.40
2018-09-30T09:06:37.180Z,53.50
2018-09-30T09:09:14.513Z,58.10
2018-09-30T09:11:47.398Z,57.60
2018-09-30T09:14:20.997Z,57.10
2018-09-30T09:16:53.501Z,58.70
2018-09-30T09:19:29.050Z,56.70
2018-09-30T09:22:01.618Z,54.40
2018-09-30T09:24:35.205Z,57.10
2018-09-30T09:27:07.502Z,56.70
2018-09-30T09:29:41.028Z,56.40
2018-09-30T09:32:14.056Z,54.60
2018-09-30T09:34:46.844Z,56.10
2018-09-30T09:37:20.449Z,56.90
2018-09-30T09:39:53.619Z,57.60
2018-09-30T09:42:25.863Z,56.80
2018-09-30T09:44:58.724Z,56.00
2018-09-30T09:47:33.558Z,54.90
2018-09-30T09:50:06.603Z,56.80
2018-09-30T09:52:39.650Z,55.90
2018-09-30T09:55:13.683Z,54.70
2018-09-30T09:57:45.832Z,55.90
2018-09-30T10:00:23.739Z,53.60
2018-09-30T10:05:31.180Z,53.10
2018-09-30T10:08:03.442Z,53.30
2018-09-30T10:10:37.505Z,53.80
2018-09-30T10:13:11.918Z,53.30
2018-09-30T10:15:45.089Z,52.60
2018-09-30T10:18:19.032Z,52.20
2018-09-30T10:20:51.996Z,53.00
2018-09-30T10:23:24.717Z,52.90
2018-09-30T10:25:57.812Z,53.60
2018-09-30T10:28:31.196Z,52.20
2018-09-30T10:31:04.456Z,52.40
2018-09-30T10:33:35.852Z,53.60
2018-09-30T10:36:08.972Z,54.30
2018-09-30T10:38:42.687Z,55.10
2018-09-30T10:41:17.555Z,54.70
2018-09-30T10:43:49.436Z,56.00
2018-09-30T10:46:22.496Z,55.60
2018-09-30T10:48:56.256Z,55.50
2018-09-30T10:51:32.668Z,54.60
2018-09-30T10:54:07.255Z,56.00
2018-09-30T10:56:42.187Z,55.80
2018-09-30T10:59:15.297Z,55.30
2018-09-30T11:01:48.717Z,54.70
2018-09-30T11:04:21.497Z,55.00
2018-09-30T11:06:55.053Z,56.50
2018-09-30T11:09:28.498Z,54.60
2018-09-30T11:12:02.088Z,56.50
2018-09-30T11:14:36.496Z,55.70
2018-09-30T11:17:09.767Z,55.20
2018-09-30T11:19:43.950Z,55.90
2018-09-30T11:22:16.352Z,56.20
2018-09-30T11:24:49.335Z,55.40
2018-09-30T11:27:22.193Z,54.80
2018-09-30T11:29:55.672Z,55.60
2018-09-30T11:32:27.690Z,55.70
2018-09-30T11:35:01.547Z,55.60
2018-09-30T11:37:34.273Z,55.10
2018-09-30T11:40:07.525Z,54.70
2018-09-30T11:42:40.441Z,54.30
2018-09-30T11:45:14.251Z,54.60
2018-09-30T11:47:47.201Z,55.40
2018-09-30T11:50:22.111Z,55.10
2018-09-30T11:55:27.370Z,55.30
2018-09-30T11:58:01.268Z,55.50
2018-09-30T12:00:33.712Z,54.70
2018-09-30T12:03:06.998Z,54.90
2018-09-30T12:05:39.054Z,55.30
2018-09-30T12:08:11.822Z,55.30
2018-09-30T12:10:46.684Z,55.40
2018-09-30T12:13:20.480Z,55.90
2018-09-30T12:15:53.858Z,55.90
2018-09-30T12:18:27.682Z,56.10
2018-09-30T12:21:01.321Z,56.00
2018-09-30T12:23:34.080Z,56.00
2018-09-30T12:26:07.871Z,56.70
2018-09-30T12:41:27.107Z,56.30
2018-09-30T12:44:00.721Z,56.20
2018-09-30T12:46:33.465Z,57.40
2018-09-30T12:49:07.756Z,57.10
2018-09-30T12:51:41.044Z,57.50
2018-09-30T12:54:14.363Z,57.50
2018-09-30T12:56:47.714Z,58.10
2018-09-30T12:59:22.008Z,57.50
2018-09-30T13:01:55.518Z,57.70
2018-09-30T13:04:29.214Z,58.20
2018-09-30T15:31:54.240Z,51.70
2018-09-30T15:34:27.197Z,52.90
2018-09-30T15:37:01.090Z,53.70
2018-09-30T15:39:33.307Z,53.70
2018-09-30T15:42:07.086Z,53.90
2018-09-30T15:44:39.864Z,53.80
2018-09-30T15:47:12.263Z,54.10
2018-09-30T15:49:45.083Z,54.60
2018-09-30T15:52:17.915Z,54.00
2018-09-30T15:54:49.754Z,54.10
2018-09-30T15:57:22.508Z,54.30
2018-09-30T15:59:54.971Z,54.40
2018-09-30T16:02:26.816Z,54.40
2018-09-30T16:04:59.703Z,54.60
2018-09-30T16:07:32.005Z,54.90
2018-09-30T16:10:04.121Z,54.70
2018-09-30T16:12:36.977Z,55.10
2018-09-30T16:15:10.156Z,55.40
2018-09-30T16:17:42.996Z,54.90
2018-09-30T16:20:15.044Z,55.00
2018-09-30T16:22:47.378Z,55.30
2018-09-30T16:25:19.838Z,55.30
2018-09-30T16:27:52.090Z,55.30
2018-09-30T16:30:25.174Z,55.40
2018-09-30T16:32:56.911Z,55.30
2018-09-30T16:35:29.003Z,55.40
2018-09-30T16:38:01.721Z,55.60
2018-09-30T16:40:34.239Z,55.50
2018-09-30T16:43:06.990Z,55.80
2018-09-30T16:45:40.790Z,55.80
2018-09-30T16:48:12.975Z,56.00
2018-09-30T16:50:47.346Z,56.10
2018-09-30T16:53:20.240Z,56.00
2018-09-30T16:55:52.375Z,56.10
2018-09-30T16:58:24.318Z,56.20
2018-09-30T17:00:57.570Z,56.40
2018-09-30T17:03:30.115Z,56.40
2018-09-30T17:06:02.191Z,56.50
2018-09-30T17:08:35.985Z,56.60
2018-09-30T17:11:07.019Z,56.80
2018-09-30T17:13:39.946Z,56.80
2018-09-30T17:16:12.973Z,56.80
2018-09-30T17:18:46.068Z,57.00
2018-09-30T17:21:18.605Z,56.90
2018-09-30T17:23:50.499Z,57.20
2018-09-30T17:26:24.034Z,57.20
2018-09-30T17:28:56.611Z,57.10
2018-09-30T17:31:28.622Z,57.50
2018-09-30T17:34:02.060Z,57.10
2018-09-30T17:36:34.743Z,57.00
2018-09-30T17:39:10.433Z,57.10
2018-09-30T17:41:41.726Z,57.10
2018-09-30T17:44:10.903Z,57.20
2018-09-30T17:46:43.004Z,57.30
2018-09-30T17:49:14.981Z,57.50
2018-09-30T17:51:46.906Z,57.40
2018-09-30T17:54:20.145Z,57.80
2018-09-30T17:56:52.809Z,57.70
2018-09-30T17:59:25.099Z,57.70
2018-09-30T18:01:58.272Z,58.00
2018-09-30T18:04:30.193Z,57.60
2018-09-30T18:07:03.041Z,57.70
2018-09-30T18:09:36.083Z,57.30
2018-09-30T18:12:09.106Z,58.00
2018-09-30T18:14:41.256Z,58.30
2018-09-30T18:17:14.008Z,58.60
2018-09-30T18:19:47.221Z,59.10
2018-09-30T18:22:19.332Z,59.20
2018-09-30T18:24:51.908Z,59.30
2018-09-30T18:27:24.237Z,59.50
2018-09-30T18:29:56.407Z,59.30
2018-09-30T18:32:30.151Z,59.50
2018-09-30T18:35:02.451Z,59.60
2018-09-30T18:37:35.266Z,59.50
2018-09-30T18:40:09.260Z,59.10
2018-09-30T18:42:42.017Z,59.30
2018-09-30T18:45:15.302Z,59.70
2018-09-30T18:47:47.990Z,60.00
2018-09-30T18:50:20.374Z,60.10
2018-09-30T18:52:52.907Z,59.90
2018-09-30T18:55:26.415Z,59.80
2018-09-30T18:57:58.871Z,59.70
2018-09-30T19:00:31.941Z,59.50
2018-09-30T19:03:04.091Z,60.00
2018-09-30T19:05:36.773Z,60.30
2018-09-30T19:08:10.773Z,60.60
2018-09-30T19:10:43.381Z,60.60
2018-09-30T19:13:15.423Z,60.30
2018-09-30T19:15:48.681Z,60.60
2018-09-30T19:18:22.688Z,60.30
2018-09-30T19:20:55.913Z,60.20
2018-09-30T19:23:28.587Z,60.20
2018-09-30T19:26:00.450Z,60.30
2018-09-30T19:28:33.289Z,60.40
2018-09-30T19:31:05.726Z,60.50
2018-09-30T19:33:39.706Z,60.80
2018-09-30T19:36:12.618Z,61.40
2018-09-30T19:38:45.977Z,61.80
2018-09-30T19:41:18.811Z,61.10
2018-09-30T19:43:51.379Z,61.20
2018-09-30T19:46:23.822Z,61.70
2018-09-30T19:48:56.203Z,62.60
2018-09-30T19:51:28.811Z,62.60
2018-09-30T19:54:01.562Z,62.70
2018-09-30T19:56:34.940Z,63.20
2018-09-30T19:59:06.980Z,63.10
2018-09-30T20:01:40.117Z,62.20
2018-09-30T20:04:13.336Z,62.00
2018-09-30T20:06:46.121Z,61.80
2018-09-30T20:09:19.159Z,61.80
2018-09-30T20:11:51.967Z,61.80
2018-09-30T20:14:25.897Z,62.00
2018-09-30T20:16:58.753Z,62.00
2018-09-30T20:19:30.676Z,62.70
2018-09-30T20:22:05.696Z,62.90
2018-09-30T20:24:40.026Z,63.10
2018-09-30T20:27:12.906Z,63.50
2018-09-30T20:29:45.416Z,64.00
2018-09-30T20:32:19.895Z,64.70
2018-09-30T20:34:53.988Z,65.30
2018-09-30T20:37:27.053Z,65.60
2018-09-30T20:39:59.292Z,65.20
2018-09-30T20:42:35.553Z,65.50
2018-09-30T20:45:10.676Z,65.70
2018-09-30T20:47:44.362Z,66.20
2018-09-30T20:50:17.769Z,66.00
2018-09-30T20:52:50.426Z,66.20
2018-09-30T20:55:22.985Z,66.60
2018-09-30T20:57:55.897Z,65.80
2018-09-30T21:00:29.597Z,66.00
2018-09-30T21:03:02.597Z,66.00
2018-09-30T21:06:44.520Z,66.00
2018-09-30T21:09:19.959Z,66.70
2018-09-30T21:11:53.105Z,67.40
2018-09-30T21:14:27.347Z,68.10
2018-09-30T21:17:01.126Z,68.70
2018-09-30T21:19:35.139Z,69.20
2018-09-30T21:22:09.928Z,70.10
2018-09-30T21:24:43.193Z,70.20
2018-09-30T21:27:17.350Z,70.30
2018-09-30T21:29:51.230Z,69.00
2018-09-30T21:32:25.984Z,68.60
2018-09-30T21:35:00.160Z,68.20
2018-09-30T21:37:34.415Z,67.60
2018-09-30T21:40:08.185Z,67.80
2018-09-30T21:42:43.060Z,67.40
2018-09-30T21:45:16.724Z,67.80
2018-09-30T21:47:50.007Z,68.20
2018-09-30T21:50:25.650Z,68.60
2018-09-30T21:52:59.861Z,69.10
2018-09-30T21:55:33.937Z,70.00
2018-09-30T21:58:08.205Z,69.00
2018-09-30T22:00:48.669Z,68.70
2018-09-30T22:03:21.478Z,68.80
2018-09-30T22:05:54.518Z,68.90
2018-09-30T22:08:27.757Z,68.70
2018-09-30T22:11:00.350Z,68.40
2018-09-30T22:13:33.536Z,68.30
2018-09-30T22:16:06.958Z,68.00
2018-09-30T22:18:39.363Z,68.20
2018-09-30T22:21:11.715Z,66.80
2018-09-30T22:23:45.184Z,66.90
2018-09-30T22:26:18.376Z,66.70
2018-09-30T22:28:52.211Z,66.60
2018-09-30T22:31:25.823Z,66.50
2018-09-30T22:33:58.970Z,66.70
2018-09-30T22:36:32.681Z,66.60
2018-09-30T22:39:07.690Z,66.00
2018-09-30T22:41:41.523Z,66.00
2018-09-30T22:44:15.038Z,65.70
2018-09-30T22:46:48.347Z,65.60
2018-09-30T22:49:22.340Z,65.70
2018-09-30T22:51:56.726Z,66.00
2018-09-30T22:54:31.018Z,65.60
2018-09-30T22:57:05.907Z,65.20
2018-09-30T22:59:39.773Z,64.60
2018-09-30T23:02:13.262Z,64.60
2018-09-30T23:04:46.933Z,64.90
2018-09-30T23:07:20.139Z,64.70
2018-09-30T23:09:53.331Z,64.60
2018-09-30T23:12:26.978Z,64.80
2018-09-30T23:15:01.272Z,64.40
2018-09-30T23:17:36.906Z,64.30
2018-09-30T23:20:17.532Z,63.50
2018-09-30T23:22:50.982Z,62.30
2018-09-30T23:25:24.162Z,62.30
2018-09-30T23:27:57.506Z,62.30
2018-09-30T23:30:30.841Z,62.10
2018-09-30T23:33:03.631Z,61.00
2018-09-30T23:35:36.756Z,60.20
2018-09-30T23:38:10.589Z,59.80
2018-09-30T23:40:43.105Z,59.90
2018-09-30T23:43:15.900Z,59.30
2018-09-30T23:45:50.113Z,58.70
2018-09-30T23:48:23.221Z,58.80
2018-09-30T23:50:56.605Z,60.30
2018-09-30T23:53:30.347Z,58.60
2018-09-30T23:56:03.907Z,58.90
2018-09-30T23:58:35.889Z,58.90
